createdAt,value
2022-11-04T00:02:12.342Z,26.88
2022-11-04T00:04:39.485Z,25.02
2022-11-04T00:07:26.577Z,28.52
2022-11-04T00:09:53.744Z,33.88
2022-11-04T00:12:27.113Z,26.00
2022-11-04T00:14:54.383Z,24.67
2022-11-04T00:17:24.253Z,33.92
2022-11-04T00:20:11.165Z,28.38
2022-11-04T00:22:57.160Z,24.48
2022-11-04T00:25:42.992Z,24.30
2022-11-04T00:28:30.378Z,23.88
2022-11-04T00:30:57.753Z,27.38
2022-11-04T00:33:28.154Z,26.00
2022-11-04T00:35:56.539Z,24.63
2022-11-04T00:38:24.310Z,30.40
2022-11-04T00:40:51.428Z,30.45
2022-11-04T00:43:18.623Z,26.63
2022-11-04T00:45:45.880Z,24.02
2022-11-04T00:48:13.004Z,23.23
2022-11-04T00:50:40.268Z,22.80
2022-11-04T00:53:07.560Z,21.77
2022-11-04T00:55:35.004Z,28.33
2022-11-04T00:58:02.122Z,24.52
2022-11-04T01:00:29.387Z,23.70
2022-11-04T01:02:56.765Z,22.58
2022-11-04T01:05:24.010Z,25.80
2022-11-04T01:07:51.138Z,24.52
2022-11-04T01:10:18.264Z,21.95
2022-11-04T01:12:45.342Z,23.40
2022-11-04T01:15:12.468Z,20.38
2022-11-04T01:17:39.537Z,20.65
2022-11-04T01:20:06.829Z,20.60
2022-11-04T01:22:33.934Z,19.70
2022-11-04T01:25:01.077Z,20.85
2022-11-04T01:27:28.175Z,19.85
2022-11-04T01:29:55.299Z,21.13
2022-11-04T01:32:22.382Z,21.40
2022-11-04T01:34:49.484Z,21.35
2022-11-04T01:37:16.604Z,21.27
2022-11-04T01:39:44.282Z,22.02
2022-11-04T01:42:13.564Z,26.77
2022-11-04T01:44:47.736Z,27.95
2022-11-04T01:47:17.878Z,28.25
2022-11-04T01:49:45.553Z,27.97
2022-11-04T01:52:17.996Z,25.60
2022-11-04T01:54:45.612Z,25.05
2022-11-04T01:57:15.221Z,24.02
2022-11-04T02:03:30.082Z,21.37
2022-11-04T02:05:57.153Z,21.17
2022-11-04T02:08:25.036Z,20.73
2022-11-04T02:11:01.816Z,19.15
2022-11-04T02:13:29.045Z,15.98
2022-11-04T02:16:03.863Z,14.32
2022-11-04T02:19:09.682Z,13.35
2022-11-04T02:21:55.593Z,12.20
2022-11-04T02:24:41.232Z,10.65
2022-11-04T02:27:16.389Z,13.60
2022-11-04T02:29:46.609Z,10.73
2022-11-04T02:32:20.038Z,8.70
2022-11-04T02:35:04.839Z,6.68
2022-11-04T02:37:50.543Z,7.68
2022-11-04T02:40:36.139Z,8.32
2022-11-04T02:43:23.513Z,10.20
2022-11-04T02:45:51.425Z,8.43
2022-11-04T02:48:29.411Z,8.30
2022-11-04T02:50:56.469Z,9.02
2022-11-04T02:53:34.429Z,5.63
2022-11-04T02:56:01.497Z,6.57
2022-11-04T02:58:30.423Z,6.10
2022-11-04T03:00:57.908Z,6.18
2022-11-04T03:03:26.198Z,6.13
2022-11-04T03:05:53.780Z,6.63
2022-11-04T03:08:23.485Z,5.15
2022-11-04T03:10:59.746Z,6.28
2022-11-04T03:13:32.185Z,6.63
2022-11-04T03:15:59.848Z,6.60
2022-11-04T03:18:43.129Z,6.85
2022-11-04T03:21:10.381Z,7.72
2022-11-04T03:23:37.456Z,8.05
2022-11-04T03:26:24.501Z,8.20
2022-11-04T03:28:54.451Z,7.57
2022-11-04T03:31:23.528Z,7.65
2022-11-04T03:33:51.432Z,7.30
2022-11-04T03:36:18.747Z,7.90
2022-11-04T03:38:45.846Z,7.32
2022-11-04T03:41:17.272Z,7.07
2022-11-04T03:43:44.369Z,7.57
2022-11-04T03:46:11.515Z,7.25
2022-11-04T03:48:38.638Z,7.63
2022-11-04T03:51:05.752Z,7.43
2022-11-04T03:53:32.905Z,7.45
2022-11-04T03:56:05.937Z,7.63
2022-11-04T03:58:33.007Z,7.80
2022-11-04T04:01:01.729Z,7.97
2022-11-04T04:03:31.182Z,7.68
2022-11-04T04:06:00.353Z,6.95
2022-11-04T04:08:38.606Z,7.63
2022-11-04T04:11:28.669Z,8.80
2022-11-04T04:13:57.700Z,9.32
2022-11-04T04:16:27.844Z,10.00
2022-11-04T04:18:59.040Z,10.57
2022-11-04T04:21:30.619Z,11.40
2022-11-04T04:24:16.093Z,12.98
2022-11-04T04:27:01.710Z,13.38
2022-11-04T04:29:28.851Z,13.07
2022-11-04T04:31:57.812Z,13.85
2022-11-04T04:34:31.677Z,15.05
2022-11-04T04:37:17.077Z,13.55
2022-11-04T04:40:04.008Z,12.23
2022-11-04T04:42:52.781Z,12.50
2022-11-04T04:45:21.434Z,11.98
2022-11-04T04:47:48.512Z,10.15
2022-11-04T04:50:16.332Z,10.88
2022-11-04T04:52:44.637Z,10.60
2022-11-04T04:55:11.779Z,10.75
2022-11-04T04:57:38.921Z,10.05
2022-11-04T05:00:06.550Z,11.43
2022-11-04T05:02:33.685Z,10.43
2022-11-04T05:05:01.395Z,9.38
2022-11-04T05:07:28.567Z,7.82
2022-11-04T05:09:55.660Z,7.93
2022-11-04T05:12:22.763Z,7.60
2022-11-04T05:14:49.933Z,9.27
2022-11-04T05:17:17.087Z,8.07
2022-11-04T05:19:44.189Z,8.75
2022-11-04T05:22:11.333Z,9.45
2022-11-04T05:24:38.443Z,9.13
2022-11-04T05:27:05.575Z,8.88
2022-11-04T05:29:32.686Z,8.98
2022-11-04T05:31:59.760Z,8.23
2022-11-04T05:34:26.855Z,7.80
2022-11-04T05:36:53.960Z,8.27
2022-11-04T05:39:21.036Z,8.15
2022-11-04T05:41:48.105Z,7.43
2022-11-04T05:44:15.858Z,7.50
2022-11-04T05:46:42.999Z,7.57
2022-11-04T05:49:10.204Z,8.27
2022-11-04T05:51:37.328Z,9.53
2022-11-04T05:54:04.556Z,9.97
2022-11-04T05:56:31.687Z,11.73
2022-11-04T05:58:58.802Z,11.55
2022-11-04T06:01:44.298Z,13.05
2022-11-04T06:04:15.271Z,13.03
2022-11-04T06:06:42.358Z,13.00
2022-11-04T06:09:09.446Z,14.90
2022-11-04T06:11:36.613Z,16.52
2022-11-04T06:14:03.780Z,16.33
2022-11-04T06:16:30.907Z,18.43
2022-11-04T06:19:01.609Z,18.30
2022-11-04T06:21:33.213Z,19.07
2022-11-04T06:24:00.459Z,18.90
2022-11-04T06:26:28.897Z,20.07
2022-11-04T06:28:56.186Z,21.15
2022-11-04T06:31:23.515Z,22.88
2022-11-04T06:33:50.615Z,27.55
2022-11-04T06:36:17.727Z,31.40
2022-11-04T06:38:44.980Z,29.85
2022-11-04T06:41:13.032Z,33.90
2022-11-04T06:43:40.131Z,25.47
2022-11-04T06:46:07.883Z,23.47
2022-11-04T06:48:34.973Z,21.20
2022-11-04T06:51:02.143Z,20.27
2022-11-04T06:53:29.929Z,21.00
2022-11-04T06:56:02.546Z,21.38
2022-11-04T06:58:29.626Z,20.10
2022-11-04T07:00:56.803Z,19.92
2022-11-04T07:03:24.146Z,20.70
2022-11-04T07:05:51.228Z,19.80
2022-11-04T07:08:18.833Z,19.10
2022-11-04T07:10:45.960Z,18.80
2022-11-04T07:13:13.049Z,17.90
2022-11-04T07:15:40.331Z,16.77
2022-11-04T07:18:07.862Z,18.38
2022-11-04T07:20:35.468Z,16.58
2022-11-04T07:23:02.550Z,11.73
2022-11-04T07:25:29.902Z,12.23
2022-11-04T07:28:01.061Z,8.85
2022-11-04T07:30:29.568Z,10.45
2022-11-04T07:32:56.671Z,13.23
2022-11-04T07:35:23.740Z,10.60
2022-11-04T07:37:50.824Z,10.70
2022-11-04T07:40:17.944Z,10.43
2022-11-04T07:42:45.146Z,10.48
2022-11-04T07:45:12.299Z,10.10
2022-11-04T07:47:39.396Z,11.38
2022-11-04T07:50:10.783Z,10.95
2022-11-04T07:52:38.392Z,11.02
2022-11-04T07:55:05.761Z,11.43
2022-11-04T07:57:32.836Z,11.55
2022-11-04T07:59:59.993Z,11.75
2022-11-04T08:02:32.430Z,12.07
2022-11-04T08:05:02.028Z,16.15
2022-11-04T08:07:29.112Z,12.63
2022-11-04T08:09:56.349Z,13.27
2022-11-04T08:12:24.380Z,12.07
2022-11-04T08:14:51.778Z,12.25
2022-11-04T08:17:18.851Z,12.68
2022-11-04T08:19:45.944Z,13.48
2022-11-04T08:22:13.256Z,8.15
2022-11-04T08:24:40.473Z,7.68
2022-11-04T08:27:07.818Z,8.57
2022-11-04T08:29:35.295Z,9.50
2022-11-04T08:32:02.475Z,11.43
2022-11-04T08:34:29.573Z,8.82
2022-11-04T08:37:00.258Z,7.55
2022-11-04T08:39:27.521Z,5.82
2022-11-04T08:41:54.764Z,5.85
2022-11-04T08:44:22.354Z,6.80
2022-11-04T08:46:49.430Z,4.72
2022-11-04T08:49:21.094Z,7.75
2022-11-04T08:51:54.895Z,6.32
2022-11-04T08:54:22.019Z,6.20
2022-11-04T08:56:49.519Z,5.68
2022-11-04T08:59:17.262Z,4.22
2022-11-04T09:01:44.524Z,2.90
2022-11-04T09:04:12.374Z,3.47
2022-11-04T09:06:40.253Z,3.33
2022-11-04T09:09:08.067Z,3.33
2022-11-04T09:11:35.625Z,2.78
2022-11-04T09:14:02.750Z,2.90
2022-11-04T09:16:30.496Z,4.15
2022-11-04T09:18:58.303Z,3.33
2022-11-04T09:21:26.086Z,4.95
2022-11-04T09:23:53.414Z,2.75
2022-11-04T09:26:20.580Z,3.40
2022-11-04T09:28:47.672Z,2.78
2022-11-04T09:31:15.984Z,3.20
2022-11-04T09:33:43.198Z,2.67
2022-11-04T09:36:10.562Z,3.15
2022-11-04T09:38:38.171Z,2.75
2022-11-04T09:41:23.968Z,2.70
2022-11-04T09:43:56.535Z,2.80
2022-11-04T09:46:23.639Z,3.05
2022-11-04T09:48:54.172Z,2.45
2022-11-04T09:51:48.118Z,2.88
2022-11-04T09:54:15.681Z,3.00
2022-11-04T09:56:43.903Z,3.30
2022-11-04T09:59:11.549Z,3.15
2022-11-04T10:01:41.280Z,3.10
2022-11-04T10:04:15.905Z,2.90
2022-11-04T10:06:54.676Z,3.58
2022-11-04T10:09:24.641Z,3.28
2022-11-04T10:12:10.333Z,3.63
2022-11-04T10:14:40.523Z,3.72
2022-11-04T10:17:26.275Z,3.10
2022-11-04T10:20:12.219Z,3.85
2022-11-04T10:22:42.314Z,3.50
2022-11-04T10:25:16.260Z,3.33
2022-11-04T10:27:44.107Z,3.45
2022-11-04T10:30:16.523Z,3.50
2022-11-04T10:32:54.171Z,3.67
2022-11-04T10:35:21.282Z,3.88
2022-11-04T10:37:48.836Z,3.60
2022-11-04T10:40:18.159Z,3.85
2022-11-04T10:42:45.266Z,3.83
2022-11-04T10:45:15.443Z,4.13
2022-11-04T10:47:48.496Z,3.80
2022-11-04T10:50:33.873Z,3.55
2022-11-04T10:53:12.214Z,11.18
2022-11-04T10:55:59.769Z,4.32
2022-11-04T10:58:28.598Z,4.57
2022-11-04T11:00:55.942Z,7.10
2022-11-04T11:03:30.643Z,3.75
2022-11-04T11:06:23.804Z,4.03
2022-11-04T11:08:50.937Z,4.22
2022-11-04T11:11:18.101Z,4.82
2022-11-04T11:13:46.520Z,4.57
2022-11-04T11:16:14.465Z,4.38
2022-11-04T11:18:42.125Z,4.32
2022-11-04T11:21:18.364Z,5.13
2022-11-04T11:23:47.474Z,5.93
2022-11-04T11:26:30.049Z,6.25
2022-11-04T11:29:00.103Z,4.88
2022-11-04T11:31:27.198Z,5.18
2022-11-04T11:33:58.249Z,4.85
2022-11-04T11:36:29.026Z,4.65
2022-11-04T11:39:16.405Z,4.75
2022-11-04T11:41:58.500Z,4.38
2022-11-04T11:44:31.849Z,5.40
2022-11-04T11:47:06.017Z,4.75
2022-11-04T11:49:34.549Z,5.63
2022-11-04T11:52:25.048Z,6.05
2022-11-04T11:54:53.338Z,5.18
2022-11-04T11:57:36.309Z,4.88
2022-11-04T12:03:01.788Z,5.65
2022-11-04T12:11:44.209Z,5.60
2022-11-04T12:14:17.122Z,5.70
2022-11-04T12:16:47.954Z,5.53
2022-11-04T12:19:26.364Z,5.43
2022-11-04T12:22:00.853Z,6.10
2022-11-04T12:24:27.961Z,6.72
2022-11-04T12:27:13.762Z,6.30
2022-11-04T12:29:57.439Z,6.60
2022-11-04T12:32:27.575Z,5.90
2022-11-04T12:34:57.648Z,6.07
2022-11-04T12:37:35.463Z,6.07
2022-11-04T12:40:12.719Z,6.18
2022-11-04T12:42:45.695Z,6.47
2022-11-04T12:45:31.141Z,7.40
2022-11-04T12:48:04.755Z,6.72
2022-11-04T12:50:48.752Z,6.00
2022-11-04T12:53:15.899Z,6.20
2022-11-04T12:56:01.440Z,6.85
2022-11-04T12:58:31.376Z,6.40
2022-11-04T13:01:00.206Z,6.30
2022-11-04T13:03:36.373Z,5.82
2022-11-04T13:06:04.523Z,5.53
2022-11-04T13:08:31.590Z,5.40
2022-11-04T13:11:22.827Z,6.13
2022-11-04T13:13:51.529Z,7.15
2022-11-04T13:16:18.627Z,6.30
2022-11-04T13:18:47.932Z,7.30
2022-11-04T13:21:16.944Z,6.47
2022-11-04T13:23:57.228Z,6.45
2022-11-04T13:26:24.538Z,6.30
2022-11-04T13:29:04.359Z,7.35
2022-11-04T13:31:48.386Z,8.68
2022-11-04T13:34:34.519Z,9.00
2022-11-04T13:37:09.793Z,8.25
2022-11-04T13:39:47.385Z,9.60
2022-11-04T13:42:20.550Z,10.82
2022-11-04T13:44:48.140Z,10.27
2022-11-04T13:47:21.950Z,9.95
2022-11-04T13:49:49.843Z,8.93
2022-11-04T13:52:16.912Z,12.00
2022-11-04T13:54:45.368Z,11.25
2022-11-04T13:57:16.201Z,9.35
2022-11-04T13:59:44.378Z,8.93
2022-11-04T14:02:11.780Z,9.35
2022-11-04T14:04:48.241Z,8.80
2022-11-04T14:07:18.761Z,8.52
2022-11-04T14:09:45.864Z,8.32
2022-11-04T14:12:19.590Z,10.63
2022-11-04T14:14:47.473Z,9.57
2022-11-04T14:17:33.578Z,9.10
2022-11-04T14:20:06.757Z,8.32
2022-11-04T14:22:34.971Z,9.27
2022-11-04T14:25:21.013Z,9.63
2022-11-04T14:27:49.058Z,9.77
2022-11-04T14:30:35.259Z,10.25
2022-11-04T14:33:07.368Z,10.40
2022-11-04T14:35:34.980Z,10.80
2022-11-04T14:38:05.704Z,11.27
2022-11-04T14:40:59.092Z,12.68
2022-11-04T14:43:31.313Z,12.10
2022-11-04T14:45:58.670Z,12.50
2022-11-04T14:48:25.915Z,12.02
2022-11-04T14:50:53.629Z,13.15
2022-11-04T14:53:33.657Z,12.35
2022-11-04T14:56:07.676Z,13.48
2022-11-04T14:58:34.796Z,14.65
2022-11-04T15:01:02.227Z,18.23
2022-11-04T15:06:35.212Z,19.58
2022-11-04T15:09:19.272Z,31.25
2022-11-04T15:12:04.967Z,32.15
2022-11-04T15:14:32.059Z,32.63
2022-11-04T15:16:59.272Z,34.88
2022-11-04T15:19:36.036Z,38.35
2022-11-04T15:22:03.750Z,34.22
2022-11-04T15:24:31.079Z,34.72
2022-11-04T15:27:00.022Z,33.63
2022-11-04T15:29:27.088Z,39.25
2022-11-04T15:31:55.409Z,35.55
2022-11-04T15:34:22.621Z,33.20
2022-11-04T15:36:49.862Z,31.35
2022-11-04T15:39:32.265Z,32.72
2022-11-04T15:42:19.089Z,31.02
2022-11-04T15:44:47.247Z,32.33
2022-11-04T15:47:20.346Z,31.35
2022-11-04T15:49:47.820Z,31.33
2022-11-04T15:52:19.890Z,31.95
2022-11-04T15:54:57.954Z,33.58
2022-11-04T15:57:25.739Z,49.38
2022-11-04T15:59:52.814Z,56.38
2022-11-04T16:02:22.944Z,58.70
2022-11-04T16:05:02.349Z,73.95
2022-11-04T16:07:31.341Z,68.22
2022-11-04T16:09:58.425Z,38.50
2022-11-04T16:12:27.002Z,41.58
2022-11-04T16:14:54.846Z,42.25
2022-11-04T16:17:22.052Z,36.58
2022-11-04T16:19:50.075Z,40.72
2022-11-04T16:22:21.843Z,42.30
2022-11-04T16:24:49.293Z,40.72
2022-11-04T16:27:18.934Z,42.75
2022-11-04T16:29:51.142Z,42.95
2022-11-04T16:32:19.684Z,50.65
2022-11-04T16:34:47.105Z,48.65
2022-11-04T16:37:14.281Z,51.40
2022-11-04T16:39:41.410Z,61.83
2022-11-04T16:42:27.345Z,57.88
2022-11-04T16:44:57.240Z,55.30
2022-11-04T16:47:25.889Z,55.55
2022-11-04T16:49:53.019Z,55.20
2022-11-04T16:52:22.908Z,65.63
2022-11-04T16:54:49.994Z,60.55
2022-11-04T16:57:17.340Z,62.97
2022-11-04T16:59:44.479Z,60.38
2022-11-04T17:02:14.955Z,60.72
2022-11-04T17:04:43.648Z,65.40
2022-11-04T17:07:10.825Z,62.85
2022-11-04T17:09:37.942Z,62.50
2022-11-04T17:12:05.723Z,73.70
2022-11-04T17:14:32.876Z,69.72
2022-11-04T17:17:00.001Z,82.57
2022-11-04T17:19:30.538Z,85.15
2022-11-04T17:22:02.796Z,85.57
2022-11-04T17:24:30.145Z,84.85
2022-11-04T17:26:57.321Z,82.18
2022-11-04T17:29:24.482Z,88.28
2022-11-04T17:31:53.578Z,95.85
2022-11-04T17:34:23.744Z,97.40
2022-11-04T17:36:50.868Z,97.95
2022-11-04T17:39:17.983Z,92.63
2022-11-04T17:42:03.833Z,103.95
2022-11-04T17:44:30.974Z,81.50
2022-11-04T17:47:00.375Z,80.90
2022-11-04T17:49:28.000Z,91.43
2022-11-04T17:51:55.987Z,104.53
2022-11-04T17:54:23.180Z,122.18
2022-11-04T17:56:50.357Z,127.32
2022-11-04T17:59:17.518Z,132.75
2022-11-04T18:01:44.851Z,131.00
2022-11-04T18:04:15.917Z,129.35
2022-11-04T18:06:43.045Z,121.72
2022-11-04T18:09:11.066Z,105.63
2022-11-04T18:11:56.934Z,92.43
2022-11-04T18:14:24.081Z,75.05
2022-11-04T18:16:51.326Z,69.78
2022-11-04T18:19:21.715Z,73.43
2022-11-04T18:21:49.658Z,82.47
2022-11-04T18:24:16.911Z,75.38
2022-11-04T18:26:44.129Z,79.82
2022-11-04T18:29:11.211Z,87.90
2022-11-04T18:31:41.250Z,101.65
2022-11-04T18:34:12.493Z,94.55
2022-11-04T18:36:39.789Z,90.03
2022-11-04T18:39:08.425Z,87.82
2022-11-04T18:41:41.607Z,82.25
2022-11-04T18:44:09.224Z,118.97
2022-11-04T18:46:36.402Z,116.18
2022-11-04T18:49:03.597Z,111.80
2022-11-04T18:51:30.733Z,98.80
2022-11-04T18:53:57.872Z,95.68
2022-11-04T18:56:25.025Z,91.70
2022-11-04T18:58:52.196Z,96.32
2022-11-04T19:01:19.402Z,91.15
2022-11-04T19:03:46.737Z,103.43
2022-11-04T19:06:14.822Z,104.35
2022-11-04T19:08:46.479Z,95.25
2022-11-04T19:11:21.433Z,104.40
2022-11-04T19:13:52.140Z,113.50
2022-11-04T19:16:19.305Z,106.68
2022-11-04T19:18:49.306Z,95.80
2022-11-04T19:21:17.428Z,86.72
2022-11-04T19:23:44.644Z,88.97
2022-11-04T19:26:21.759Z,105.40
2022-11-04T19:28:50.047Z,110.00
2022-11-04T19:31:18.438Z,96.95
2022-11-04T19:33:45.584Z,82.72
2022-11-04T19:36:12.906Z,66.53
2022-11-04T19:38:39.989Z,51.83
2022-11-04T19:41:28.324Z,42.97
2022-11-04T19:43:55.511Z,59.40
2022-11-04T19:46:22.597Z,76.57
2022-11-04T19:48:49.701Z,77.45
2022-11-04T19:51:16.787Z,79.32
2022-11-04T19:53:43.853Z,77.78
2022-11-04T19:56:14.746Z,79.75
2022-11-04T19:58:42.284Z,77.93
2022-11-04T20:01:09.514Z,82.00
2022-11-04T20:03:37.076Z,87.82
2022-11-04T20:06:04.224Z,89.15
2022-11-04T20:08:31.326Z,87.97
2022-11-04T20:10:59.666Z,92.43
2022-11-04T20:13:46.356Z,82.97
2022-11-04T20:16:29.565Z,84.70
2022-11-04T20:18:58.394Z,87.53
2022-11-04T20:21:25.681Z,91.07
2022-11-04T20:23:56.712Z,82.85
2022-11-04T20:26:24.296Z,87.85
2022-11-04T20:28:54.267Z,85.35
2022-11-04T20:31:22.276Z,88.65
2022-11-04T20:33:49.533Z,84.28
2022-11-04T20:36:18.449Z,84.07
2022-11-04T20:38:47.404Z,82.25
2022-11-04T20:41:20.803Z,93.50
2022-11-04T20:43:48.352Z,107.43
2022-11-04T20:46:19.890Z,117.55
2022-11-04T20:48:47.726Z,106.13
2022-11-04T20:51:19.060Z,114.90
2022-11-04T20:53:46.212Z,121.85
2022-11-04T20:56:15.949Z,113.30
2022-11-04T20:58:43.423Z,109.25
2022-11-04T21:01:11.684Z,112.47
2022-11-04T21:03:38.860Z,110.82
2022-11-04T21:06:06.035Z,118.63
2022-11-04T21:08:36.282Z,118.95
2022-11-04T21:11:03.650Z,115.90
2022-11-04T21:13:30.817Z,109.03
2022-11-04T21:15:58.405Z,107.70
2022-11-04T21:18:25.576Z,113.07
2022-11-04T21:20:52.814Z,107.78
2022-11-04T21:23:20.397Z,110.93
2022-11-04T21:25:49.790Z,112.13
2022-11-04T21:28:16.938Z,105.20
2022-11-04T21:30:44.821Z,105.68
2022-11-04T21:33:11.922Z,104.00
2022-11-04T21:35:39.251Z,108.00
2022-11-04T21:38:06.769Z,107.68
2022-11-04T21:40:34.193Z,101.47
2022-11-04T21:43:01.336Z,105.20
2022-11-04T21:45:28.465Z,97.55
2022-11-04T21:47:55.553Z,100.93
2022-11-04T21:50:22.687Z,100.70
2022-11-04T21:52:49.762Z,102.25
2022-11-04T21:55:16.985Z,102.93
2022-11-04T21:57:44.120Z,105.80
2022-11-04T22:00:11.934Z,101.78
2022-11-04T22:02:42.447Z,102.75
2022-11-04T22:05:12.518Z,100.38
2022-11-04T22:07:58.228Z,100.00
2022-11-04T22:10:25.478Z,101.97
2022-11-04T22:12:52.669Z,105.35
2022-11-04T22:15:38.889Z,107.93
2022-11-04T22:18:06.506Z,118.10
2022-11-04T22:20:35.502Z,116.53
2022-11-04T22:23:02.702Z,122.13
2022-11-04T22:25:30.477Z,116.13
2022-11-04T22:27:57.545Z,131.00
2022-11-04T22:30:24.689Z,105.50
2022-11-04T22:32:52.300Z,126.85
2022-11-04T22:35:19.371Z,103.32
2022-11-04T22:37:46.479Z,100.25
2022-11-04T22:40:13.586Z,101.03
2022-11-04T22:42:40.693Z,106.35
2022-11-04T22:45:12.456Z,77.63
2022-11-04T22:47:42.604Z,87.85
2022-11-04T22:50:09.749Z,80.97
2022-11-04T22:52:36.893Z,81.10
2022-11-04T22:55:04.013Z,81.00
2022-11-04T22:57:31.118Z,88.85
2022-11-04T22:59:58.234Z,98.35
2022-11-04T23:02:25.494Z,97.55
2022-11-04T23:04:52.691Z,97.80
2022-11-04T23:07:19.797Z,87.03
2022-11-04T23:10:05.518Z,81.13
2022-11-04T23:12:51.361Z,79.00
2022-11-04T23:15:37.344Z,79.20
2022-11-04T23:18:24.289Z,73.03
2022-11-04T23:21:11.388Z,73.05
2022-11-04T23:23:57.023Z,72.68
2022-11-04T23:26:27.692Z,74.70
2022-11-04T23:29:13.995Z,97.10
2022-11-04T23:31:41.145Z,98.60
2022-11-04T23:34:27.480Z,101.88
2022-11-04T23:37:13.098Z,87.88
2022-11-04T23:39:43.902Z,73.57
2022-11-04T23:42:18.033Z,78.80
2022-11-04T23:45:13.044Z,38.35
2022-11-04T23:47:59.536Z,58.75
2022-11-04T23:50:46.009Z,56.53
2022-11-04T23:53:32.462Z,54.20
2022-11-04T23:56:18.316Z,54.08
2022-11-04T23:59:04.262Z,50.47
